createdAt,value
2023-02-05T00:00:54.460Z,4.70
2023-02-05T00:03:42.966Z,4.60
2023-02-05T00:06:33.045Z,4.70
2023-02-05T00:09:21.019Z,4.70
2023-02-05T00:12:08.893Z,4.70
2023-02-05T00:14:56.824Z,4.60
2023-02-05T00:17:44.938Z,4.50
2023-02-05T00:20:32.724Z,4.30
2023-02-05T00:23:20.710Z,4.30
2023-02-05T00:26:09.220Z,4.30
2023-02-05T00:28:57.280Z,4.30
2023-02-05T00:31:45.060Z,4.50
2023-02-05T00:34:33.173Z,4.60
2023-02-05T00:37:20.955Z,4.70
2023-02-05T00:40:09.203Z,4.90
2023-02-05T00:42:57.127Z,4.90
2023-02-05T00:45:45.063Z,4.80
2023-02-05T00:48:33.015Z,4.70
2023-02-05T00:51:21.604Z,4.60
2023-02-05T00:54:09.572Z,4.70
2023-02-05T00:56:57.368Z,4.50
2023-02-05T00:59:48.405Z,4.40
2023-02-05T01:02:36.194Z,3.90
2023-02-05T01:05:23.906Z,3.80
2023-02-05T01:08:13.144Z,3.60
2023-02-05T01:11:01.436Z,3.60
2023-02-05T01:13:49.289Z,3.50
2023-02-05T01:16:37.072Z,3.40
2023-02-05T01:19:24.859Z,3.60
2023-02-05T01:22:13.229Z,3.90
2023-02-05T01:25:01.327Z,3.90
2023-02-05T01:27:49.131Z,4.00
2023-02-05T01:30:39.614Z,4.00
2023-02-05T01:33:27.429Z,4.00
2023-02-05T01:36:15.331Z,4.30
2023-02-05T01:39:03.106Z,4.30
2023-02-05T01:41:50.944Z,4.30
2023-02-05T01:44:39.022Z,4.30
2023-02-05T01:47:26.761Z,4.50
2023-02-05T01:50:22.817Z,4.70
2023-02-05T01:53:15.130Z,4.70
2023-02-05T01:56:11.667Z,4.60
2023-02-05T01:59:07.514Z,4.60
2023-02-05T02:01:56.913Z,4.50
2023-02-05T02:04:59.060Z,4.30
2023-02-05T02:07:47.174Z,4.30
2023-02-05T02:10:35.660Z,4.30
2023-02-05T02:13:25.419Z,4.30
2023-02-05T02:16:13.480Z,4.40
2023-02-05T02:19:02.657Z,4.50
2023-02-05T02:22:21.835Z,4.50
2023-02-05T02:25:15.388Z,4.60
2023-02-05T02:28:31.084Z,4.60
2023-02-05T02:31:51.312Z,4.80
2023-02-05T02:34:55.937Z,4.90
2023-02-05T02:37:56.882Z,5.00
2023-02-05T02:40:52.288Z,4.90
2023-02-05T02:43:46.271Z,5.10
2023-02-05T02:46:40.633Z,4.90
2023-02-05T02:49:36.491Z,4.90
2023-02-05T02:52:26.700Z,4.80
2023-02-05T02:55:17.604Z,4.90
2023-02-05T02:58:08.837Z,4.80
2023-02-05T03:00:58.195Z,4.60
2023-02-05T03:03:58.754Z,4.40
2023-02-05T03:06:51.087Z,4.40
2023-02-05T03:10:11.896Z,4.20
2023-02-05T03:12:59.831Z,4.70
2023-02-05T03:15:48.317Z,4.90
2023-02-05T03:18:37.621Z,4.90
2023-02-05T03:21:33.571Z,4.70
2023-02-05T03:24:21.840Z,4.60
2023-02-05T03:27:10.246Z,4.70
2023-02-05T03:29:58.201Z,4.40
2023-02-05T03:33:07.456Z,4.50
2023-02-05T03:36:17.948Z,4.40
2023-02-05T03:39:27.659Z,4.60
2023-02-05T03:42:32.037Z,4.70
2023-02-05T03:45:38.652Z,4.70
2023-02-05T03:48:52.644Z,4.90
2023-02-05T03:52:00.773Z,4.90
2023-02-05T03:54:55.891Z,5.00
2023-02-05T03:57:52.344Z,4.80
2023-02-05T04:00:40.871Z,4.40
2023-02-05T04:03:28.630Z,4.40
2023-02-05T04:06:16.336Z,4.00
2023-02-05T04:09:04.466Z,4.20
2023-02-05T04:11:52.006Z,4.20
2023-02-05T04:14:39.759Z,4.40
2023-02-05T04:17:27.546Z,4.70
2023-02-05T04:20:15.495Z,4.80
2023-02-05T04:23:04.479Z,4.90
2023-02-05T04:25:56.264Z,5.00
2023-02-05T04:28:44.079Z,5.10
2023-02-05T04:31:32.061Z,4.80
2023-02-05T04:34:19.872Z,4.90
2023-02-05T04:37:07.523Z,4.90
2023-02-05T04:39:55.216Z,5.00
2023-02-05T04:42:43.317Z,5.00
2023-02-05T04:45:33.587Z,4.80
2023-02-05T04:48:21.722Z,4.90
2023-02-05T04:51:11.169Z,4.80
2023-02-05T04:54:00.936Z,4.70
2023-02-05T04:56:48.925Z,4.60
2023-02-05T04:59:36.999Z,4.60
2023-02-05T05:02:25.095Z,4.80
2023-02-05T05:05:12.901Z,4.60
2023-02-05T05:08:01.904Z,4.90
2023-02-05T05:10:49.578Z,4.50
2023-02-05T05:13:38.198Z,4.30
2023-02-05T05:16:25.894Z,4.10
2023-02-05T05:19:13.446Z,4.00
2023-02-05T05:22:01.043Z,3.90
2023-02-05T05:24:49.125Z,3.90
2023-02-05T05:27:36.739Z,4.00
2023-02-05T05:30:24.564Z,3.70
2023-02-05T05:33:12.831Z,4.00
2023-02-05T05:36:00.844Z,4.20
2023-02-05T05:38:48.951Z,4.30
2023-02-05T05:41:55.063Z,4.20
2023-02-05T05:44:43.520Z,4.10
2023-02-05T05:47:31.795Z,4.20
2023-02-05T05:50:19.674Z,4.10
2023-02-05T05:53:07.240Z,3.70
2023-02-05T05:55:55.245Z,3.50
2023-02-05T05:58:43.053Z,3.40
2023-02-05T06:01:30.998Z,3.50
2023-02-05T06:04:18.875Z,3.60
2023-02-05T06:07:06.920Z,3.70
2023-02-05T06:09:54.981Z,3.50
2023-02-05T06:12:45.985Z,3.40
2023-02-05T06:15:34.624Z,3.50
2023-02-05T06:18:23.933Z,3.30
2023-02-05T06:21:11.838Z,3.30
2023-02-05T06:23:59.983Z,3.50
2023-02-05T06:26:47.911Z,3.60
2023-02-05T06:29:36.264Z,3.50
2023-02-05T06:32:26.515Z,3.70
2023-02-05T06:35:15.242Z,4.10
2023-02-05T06:38:27.464Z,4.20
2023-02-05T06:41:42.848Z,4.40
2023-02-05T06:45:07.652Z,4.40
2023-02-05T06:51:03.467Z,4.70
2023-02-05T06:54:02.724Z,4.70
2023-02-05T06:57:17.058Z,4.60
2023-02-05T07:08:07.230Z,4.60
2023-02-05T07:11:24.015Z,4.50
2023-02-05T07:14:16.797Z,3.90
2023-02-05T07:17:18.036Z,3.70
2023-02-05T07:23:53.219Z,3.30
2023-02-05T07:27:52.778Z,3.20
2023-02-05T07:37:15.542Z,3.30
2023-02-05T07:40:03.934Z,3.30
2023-02-05T07:42:54.282Z,3.40
2023-02-05T07:45:41.918Z,3.70
2023-02-05T07:48:32.426Z,3.60
2023-02-05T07:51:23.660Z,4.00
2023-02-05T07:54:14.817Z,4.10
2023-02-05T07:57:08.119Z,4.30
2023-02-05T07:59:56.229Z,4.40
2023-02-05T08:02:44.382Z,4.40
2023-02-05T08:05:32.868Z,4.50
2023-02-05T08:08:21.048Z,4.40
2023-02-05T08:11:15.196Z,3.90
2023-02-05T08:14:03.027Z,3.70
2023-02-05T08:16:51.314Z,3.40
2023-02-05T08:19:42.610Z,3.30
2023-02-05T08:22:30.336Z,3.40
2023-02-05T08:25:21.812Z,3.10
2023-02-05T08:28:13.932Z,3.20
2023-02-05T08:31:15.291Z,3.20
2023-02-05T08:34:08.309Z,3.20
2023-02-05T08:37:07.187Z,3.30
2023-02-05T08:40:00.408Z,3.30
2023-02-05T08:45:57.008Z,3.50
2023-02-05T08:51:58.960Z,3.30
2023-02-05T08:54:49.670Z,3.20
2023-02-05T08:57:37.813Z,3.10
2023-02-05T09:00:31.882Z,3.10
2023-02-05T09:03:28.466Z,3.30
2023-02-05T09:06:17.414Z,3.50
2023-02-05T09:09:08.436Z,3.50
2023-02-05T09:11:59.214Z,3.70
2023-02-05T09:14:47.171Z,3.60
2023-02-05T09:17:38.107Z,3.60
2023-02-05T09:20:26.056Z,3.50
2023-02-05T09:23:18.007Z,3.60
2023-02-05T09:25:48.474Z,3.70
2023-02-05T09:28:56.886Z,3.80
2023-02-05T09:32:22.753Z,3.70
2023-02-05T09:34:57.801Z,3.80
2023-02-05T09:45:30.430Z,3.80
2023-02-05T09:48:38.818Z,3.80
2023-02-05T09:51:50.112Z,3.80
2023-02-05T09:55:00.774Z,3.60
2023-02-05T09:57:58.343Z,3.70
2023-02-05T10:01:02.019Z,3.60
2023-02-05T10:04:18.946Z,3.80
2023-02-05T10:07:59.790Z,4.00
2023-02-05T10:10:54.185Z,3.50
2023-02-05T10:15:07.904Z,3.80
2023-02-05T10:17:45.452Z,3.70
2023-02-05T10:20:56.719Z,4.00
2023-02-05T10:24:10.215Z,3.50
2023-02-05T10:39:05.001Z,3.40
2023-02-05T10:56:39.803Z,3.80
2023-02-05T10:59:47.502Z,3.90
2023-02-05T11:02:48.380Z,3.80
2023-02-05T11:05:44.129Z,3.90
2023-02-05T11:08:50.017Z,3.90
2023-02-05T11:11:41.960Z,3.90
2023-02-05T11:14:48.409Z,4.00
2023-02-05T11:17:43.354Z,3.90
2023-02-05T11:20:49.985Z,4.20
2023-02-05T11:24:03.709Z,4.10
2023-02-05T11:27:15.291Z,4.70
2023-02-05T11:30:52.316Z,4.40
2023-02-05T11:33:41.801Z,4.20
2023-02-05T11:37:37.839Z,4.20
2023-02-05T11:40:58.520Z,4.10
2023-02-05T11:48:20.550Z,4.40
2023-02-05T11:51:39.882Z,4.70
2023-02-05T11:55:15.528Z,4.60
2023-02-05T11:58:51.459Z,4.70
2023-02-05T12:05:26.648Z,4.40
2023-02-05T12:09:14.433Z,4.30
2023-02-05T12:12:26.581Z,4.30
2023-02-05T12:15:50.723Z,4.20
2023-02-05T12:23:33.339Z,4.80
2023-02-05T12:34:34.100Z,5.00
2023-02-05T12:38:12.403Z,5.30
2023-02-05T12:49:36.856Z,5.50
2023-02-05T12:52:59.132Z,5.30
2023-02-05T13:04:03.554Z,6.40
2023-02-05T13:07:18.896Z,7.00
2023-02-05T14:04:38.826Z,6.80
2023-02-05T14:07:51.485Z,6.80
2023-02-05T14:10:49.526Z,7.00
2023-02-05T14:13:45.052Z,6.60
2023-02-05T14:16:36.168Z,6.40
2023-02-05T14:19:28.868Z,6.00
2023-02-05T14:22:43.917Z,5.90
2023-02-05T14:25:40.090Z,6.00
2023-02-05T14:28:31.556Z,5.80
2023-02-05T14:31:54.722Z,5.90
2023-02-05T14:34:46.514Z,6.00
2023-02-05T14:37:39.997Z,6.10
2023-02-05T14:40:32.621Z,6.10
2023-02-05T14:43:33.337Z,6.20
2023-02-05T14:46:40.727Z,6.00
2023-02-05T14:49:33.993Z,5.80
2023-02-05T14:52:32.500Z,5.60
2023-02-05T14:55:25.803Z,5.70
2023-02-05T14:58:25.976Z,5.60
2023-02-05T15:01:36.482Z,5.50
2023-02-05T15:04:47.023Z,5.80
2023-02-05T15:07:38.158Z,5.60
2023-02-05T15:10:33.041Z,5.70
2023-02-05T15:13:26.757Z,5.70
2023-02-05T15:16:15.199Z,5.60
2023-02-05T15:19:06.778Z,5.60
2023-02-05T15:21:55.193Z,5.50
2023-02-05T15:24:46.229Z,5.40
2023-02-05T15:27:55.372Z,5.40
2023-02-05T15:31:08.387Z,5.30
2023-02-05T15:34:29.726Z,5.20
2023-02-05T15:37:43.678Z,5.10
2023-02-05T15:40:39.009Z,5.00
2023-02-05T15:43:35.798Z,5.10
2023-02-05T15:46:24.063Z,5.00
2023-02-05T15:49:15.140Z,5.00
2023-02-05T15:52:03.838Z,5.10
2023-02-05T15:55:03.766Z,5.00
2023-02-05T15:57:52.080Z,5.00
2023-02-05T16:00:45.371Z,4.80
2023-02-05T16:03:37.052Z,4.80
2023-02-05T16:06:29.132Z,4.80
2023-02-05T16:09:24.277Z,4.80
2023-02-05T16:12:13.916Z,4.80
2023-02-05T16:15:14.094Z,4.90
2023-02-05T16:18:07.361Z,4.90
2023-02-05T16:21:05.994Z,4.80
2023-02-05T16:24:00.351Z,4.80
2023-02-05T16:27:01.596Z,4.80
2023-02-05T16:29:57.412Z,4.70
2023-02-05T16:32:45.778Z,4.80
2023-02-05T16:35:48.943Z,4.80
2023-02-05T16:38:45.259Z,4.80
2023-02-05T16:41:47.404Z,4.80
2023-02-05T16:44:55.826Z,5.00
2023-02-05T16:48:38.116Z,5.10
2023-02-05T16:51:33.819Z,5.10
2023-02-05T16:54:24.793Z,5.00
2023-02-05T16:57:26.360Z,5.00
2023-02-05T17:00:27.910Z,5.10
2023-02-05T17:03:27.421Z,5.10
2023-02-05T17:06:29.844Z,5.00
2023-02-05T17:09:47.189Z,5.00
2023-02-05T17:12:47.064Z,4.90
2023-02-05T17:15:40.406Z,5.00
2023-02-05T17:18:34.774Z,5.30
2023-02-05T17:21:30.522Z,5.10
2023-02-05T17:24:21.896Z,5.20
2023-02-05T17:27:17.608Z,5.10
2023-02-05T17:30:14.562Z,5.10
2023-02-05T17:33:06.528Z,5.20
2023-02-05T17:35:55.013Z,5.20
2023-02-05T17:38:48.672Z,5.20
2023-02-05T17:41:56.788Z,5.30
2023-02-05T17:44:45.099Z,5.30
2023-02-05T17:47:33.048Z,5.20
2023-02-05T17:50:21.289Z,5.30
2023-02-05T17:53:14.107Z,5.50
2023-02-05T17:56:02.075Z,5.50
2023-02-05T17:58:53.693Z,5.60
2023-02-05T18:01:41.545Z,5.50
2023-02-05T18:04:29.468Z,5.50
2023-02-05T18:07:29.747Z,5.60
2023-02-05T18:10:25.336Z,5.50
2023-02-05T18:13:16.849Z,5.40
2023-02-05T18:16:05.239Z,5.40
2023-02-05T18:18:58.870Z,5.40
2023-02-05T18:22:00.599Z,5.60
2023-02-05T18:24:51.581Z,5.50
2023-02-05T18:27:48.465Z,5.50
2023-02-05T18:30:48.091Z,5.50
2023-02-05T18:38:08.926Z,5.40
2023-02-05T18:41:24.769Z,5.50
2023-02-05T18:44:18.478Z,5.60
2023-02-05T18:47:07.559Z,5.60
2023-02-05T18:53:04.657Z,5.60
2023-02-05T18:56:05.804Z,5.40
2023-02-05T18:59:01.413Z,5.20
2023-02-05T19:01:49.246Z,5.10
2023-02-05T19:04:39.486Z,5.30
2023-02-05T19:07:36.634Z,5.40
2023-02-05T19:10:29.769Z,5.40
2023-02-05T19:13:18.100Z,5.20
2023-02-05T19:16:09.352Z,4.90
2023-02-05T19:18:57.849Z,4.80
2023-02-05T19:21:50.390Z,4.90
2023-02-05T19:24:40.618Z,4.90
2023-02-05T19:27:32.829Z,4.90
2023-02-05T19:30:27.648Z,4.90
2023-02-05T19:33:15.658Z,5.00
2023-02-05T19:36:10.306Z,5.00
2023-02-05T19:42:02.788Z,5.10
2023-02-05T19:44:50.490Z,5.10
2023-02-05T19:47:48.726Z,5.00
2023-02-05T19:50:47.692Z,4.90
2023-02-05T19:53:45.436Z,4.90
2023-02-05T19:56:37.887Z,4.90
2023-02-05T19:59:26.222Z,4.90
2023-02-05T20:02:19.591Z,4.80
2023-02-05T20:05:10.055Z,4.70
2023-02-05T20:07:57.808Z,4.70
2023-02-05T20:10:46.217Z,4.70
2023-02-05T20:13:41.976Z,4.70
2023-02-05T20:16:29.912Z,4.70
2023-02-05T20:19:18.059Z,4.70
2023-02-05T20:22:09.330Z,4.70
2023-02-05T20:25:28.052Z,4.80
2023-02-05T20:28:18.378Z,4.80
2023-02-05T20:31:37.185Z,4.60
2023-02-05T20:34:31.215Z,4.60
2023-02-05T20:37:19.899Z,4.70
2023-02-05T20:40:11.195Z,4.50
2023-02-05T20:43:01.389Z,4.60
2023-02-05T20:45:49.451Z,4.60
2023-02-05T20:48:43.274Z,4.70
2023-02-05T20:51:31.424Z,4.60
2023-02-05T20:54:26.061Z,4.70
2023-02-05T20:57:25.867Z,4.60
2023-02-05T21:00:24.676Z,4.60
2023-02-05T21:03:32.150Z,4.60
2023-02-05T21:06:36.822Z,4.60
2023-02-05T21:09:36.828Z,4.50
2023-02-05T21:12:32.635Z,4.40
2023-02-05T21:15:25.943Z,4.50
2023-02-05T21:18:13.765Z,4.50
2023-02-05T21:21:15.680Z,4.60
2023-02-05T21:24:07.465Z,4.70
2023-02-05T21:26:58.449Z,4.80
2023-02-05T21:29:46.436Z,4.70
2023-02-05T21:32:34.847Z,4.70
2023-02-05T21:35:23.292Z,4.60
2023-02-05T21:38:11.027Z,4.60
2023-02-05T21:41:06.464Z,4.70
2023-02-05T21:43:56.521Z,4.70
2023-02-05T21:46:44.578Z,4.70
2023-02-05T21:49:32.483Z,4.60
2023-02-05T21:52:23.734Z,4.50
2023-02-05T21:55:11.733Z,4.40
2023-02-05T21:57:59.724Z,4.40
2023-02-05T22:00:47.625Z,4.50
2023-02-05T22:03:35.428Z,4.50
2023-02-05T22:06:25.317Z,4.40
2023-02-05T22:09:15.885Z,4.40
2023-02-05T22:12:06.998Z,4.40
2023-02-05T22:14:54.674Z,4.50
2023-02-05T22:20:56.003Z,4.60
2023-02-05T22:23:46.101Z,4.50
2023-02-05T22:27:19.035Z,4.50
2023-02-05T22:33:08.771Z,4.80
2023-02-05T22:35:57.215Z,4.80
2023-02-05T22:38:48.798Z,4.60
2023-02-05T22:41:39.375Z,4.60
2023-02-05T22:44:27.247Z,4.50
2023-02-05T22:47:14.896Z,4.50
2023-02-05T22:50:06.336Z,4.50
2023-02-05T22:52:54.130Z,4.60
2023-02-05T22:55:42.645Z,4.60
2023-02-05T22:58:30.985Z,4.80
2023-02-05T23:01:21.839Z,4.90
2023-02-05T23:04:10.387Z,4.90
2023-02-05T23:06:58.396Z,4.90
2023-02-05T23:09:46.128Z,4.70
2023-02-05T23:12:36.393Z,4.70
2023-02-05T23:15:24.224Z,4.70
2023-02-05T23:18:12.041Z,4.60
2023-02-05T23:20:59.843Z,4.50
2023-02-05T23:23:49.615Z,4.50
2023-02-05T23:26:42.350Z,4.60
2023-02-05T23:29:33.449Z,4.60
2023-02-05T23:32:21.455Z,4.60
2023-02-05T23:35:09.454Z,4.40
2023-02-05T23:37:57.282Z,4.40
2023-02-05T23:40:45.305Z,4.40
2023-02-05T23:43:35.185Z,4.40
2023-02-05T23:46:23.105Z,4.40
2023-02-05T23:49:15.034Z,4.50
2023-02-05T23:52:02.791Z,4.60
2023-02-05T23:54:50.882Z,4.60
2023-02-05T23:57:38.789Z,4.40
